La Palma > ESTACION METEOROLÓGICA CEIP Los Canarios - Fuencaliente

DATOS ACTUALES Online

Ultima actulizacion 4 minutos

18.7 ºC

Temperatura

89

Humedad (%)

1013.9

Presión (mb)

5.8

Precipitación (mm)

12.6 NE

Viento (Km/h)

DATOS DIARIOS

Temperatura últimas 24 horas (ºC)

Humedad últimas 24 horas (%)

Presión atmosférica últimas 24 horas (mb)

Precipitaciones últimas 23 horas (mm)

Viento últimas 24 horas (Km/h)

Hora Temperatura (°C) ºC Precipitación (mm) mm Presión (mb) mb Humedad (%) % Viento (Km/h) km/h
25 - 00:00 18.7 0 1018 65 25.02 NE
25 - 01:00 17.8 0 1017 71 28.08 NE
25 - 02:00 18 0 1017 68 12.6 NW
25 - 03:00 18.3 0 1017 66 26.64 NE
25 - 04:00 18.2 0 1016 67 18.72 NE
25 - 05:00 18.2 0 1015 67 25.02 N
25 - 06:00 18.8 0 1016 65 10.98 NE
25 - 07:00 19.3 0 1016 65 26.64 NE
25 - 08:00 17.9 0 1016 74 17.28 NE
25 - 09:00 17.6 0.4 1017 81 23.4 NE
25 - 10:00 17.4 2 1018 84 26.64 NE
25 - 11:00 17.8 3 1018 86 14.04 NE
25 - 12:00 17.4 4.2 1018 87 18.72 NE
25 - 13:00 17.6 5.8 1017 88 14.04 NE
25 - 14:00 17.9 5.8 1016 88 15.66 NE
25 - 15:00 18 5.8 1015 88 25.02 E
25 - 16:00 18.2 5.8 1015 88 18.72 N
25 - 17:00 18.1 5.8 1015 88 18.72 NE
25 - 18:00 18.1 5.8 1015 89 25.02 NE
25 - 19:00 18.2 5.8 1015 89 23.4 NE
25 - 20:00 18.3 5.8 1015 89 18.72 NE
25 - 21:00 18.4 5.8 1015 89 20.34 NE
25 - 22:00 18.6 5.8 1015 89 20.34 NE
25 - 23:00 18.6 5.8 1014 89 21.96 NE
26 - 00:00 18.7 5.8 1014 89 12.6 NE
Apalmet utiliza cookies propias y de terceros para mejorar la usabilidad y la experiencia web. Política de cookies.